Time;durP1;ratioP1;P1;durP2;ratioP2;P2;SDS_P1;SDS_P2;PMS_P1;PMS_P2;Temp;Humidity;BMP_temperature;BMP_pressure;BME280_temperature;BME280_humidity;BME280_pressure;Samples;Min_cycle;Max_cycle;Signal;HPM_P1;HPM_P2
2022/11/01 00:01:21;;;;;;;7.33;6.20;;;22.80;75.30;;;;;;5120091;28;20417;-82
2022/11/01 00:03:49;;;;;;;8.50;5.90;;;22.90;75.40;;;;;;5117366;28;20469;-82
2022/11/01 00:06:19;;;;;;;8.53;5.97;;;22.80;75.70;;;;;;5100564;28;20994;-82
2022/11/01 00:08:47;;;;;;;8.00;5.50;;;22.80;75.40;;;;;;5088535;28;20440;-82
2022/11/01 00:11:16;;;;;;;7.67;5.80;;;22.80;75.60;;;;;;5096975;28;20448;-82
2022/11/01 00:13:44;;;;;;;12.77;6.20;;;22.80;75.60;;;;;;5095241;28;20892;-82
2022/11/01 00:16:12;;;;;;;7.83;6.50;;;22.80;75.30;;;;;;5095356;28;20518;-82
2022/11/01 00:18:41;;;;;;;10.60;6.83;;;22.80;75.70;;;;;;5103968;28;20449;-82
2022/11/01 00:21:09;;;;;;;8.20;6.97;;;22.80;75.60;;;;;;5096582;28;20419;-82
2022/11/01 00:23:38;;;;;;;8.00;6.90;;;22.80;75.40;;;;;;5096550;28;20513;-82
2022/11/01 00:26:06;;;;;;;10.50;7.03;;;22.80;75.40;;;;;;5096251;28;20448;-82
2022/11/01 00:28:34;;;;;;;9.53;6.93;;;22.80;75.50;;;;;;5093868;28;20429;-82
2022/11/01 00:31:02;;;;;;;7.10;6.23;;;22.70;75.10;;;;;;5105988;28;20452;-82
2022/11/01 00:33:36;;;;;;;9.63;6.87;;;22.70;75.60;;;;;;5096442;28;20465;-83
2022/11/01 00:36:04;;;;;;;10.60;7.13;;;22.80;75.80;;;;;;5095526;28;20468;-83
2022/11/01 00:38:32;;;;;;;7.33;6.10;;;22.70;75.70;;;;;;5097110;28;20500;-83
2022/11/01 00:41:02;;;;;;;9.13;6.80;;;22.70;76.00;;;;;;5098441;28;20448;-83
2022/11/01 00:43:31;;;;;;;11.13;6.40;;;22.60;75.60;;;;;;5093010;28;20466;-80
2022/11/01 00:45:59;;;;;;;8.53;6.27;;;22.60;76.00;;;;;;5096002;28;20448;-77
2022/11/01 00:48:27;;;;;;;9.83;7.27;;;22.70;76.00;;;;;;5094930;28;20456;-80
2022/11/01 00:50:55;;;;;;;12.67;7.10;;;22.70;76.20;;;;;;5095104;28;20449;-78
2022/11/01 00:53:24;;;;;;;11.07;7.00;;;22.60;76.00;;;;;;5093556;28;20472;-79
2022/11/01 00:55:51;;;;;;;11.53;6.43;;;22.60;75.70;;;;;;5094887;28;20464;-77
2022/11/01 00:58:20;;;;;;;7.10;6.40;;;22.60;76.10;;;;;;5094831;28;20433;-78
2022/11/01 01:00:48;;;;;;;7.27;5.53;;;22.60;76.20;;;;;;5094348;28;20436;-78
2022/11/01 01:03:16;;;;;;;7.03;6.33;;;22.70;76.20;;;;;;5085992;28;20448;-78
2022/11/01 01:05:44;;;;;;;9.13;6.10;;;22.60;75.70;;;;;;5076306;28;20408;-79
2022/11/01 01:08:12;;;;;;;9.87;6.33;;;22.60;76.20;;;;;;5088617;28;20461;-78
2022/11/01 01:10:39;;;;;;;8.00;6.40;;;22.60;76.00;;;;;;5095381;28;20449;-79
2022/11/01 01:13:07;;;;;;;9.60;6.57;;;22.70;76.00;;;;;;5095061;28;20464;-79
2022/11/01 01:15:37;;;;;;;9.83;6.87;;;22.70;76.10;;;;;;5095143;28;20435;-79
2022/11/01 01:18:05;;;;;;;7.10;6.13;;;22.70;75.90;;;;;;5090761;28;20452;-78
2022/11/01 01:20:33;;;;;;;16.00;6.60;;;22.60;75.60;;;;;;5091110;28;20448;-79
2022/11/01 01:23:01;;;;;;;8.17;6.47;;;22.60;76.20;;;;;;5096174;28;20464;-79
2022/11/01 01:25:29;;;;;;;7.70;6.90;;;22.60;76.30;;;;;;5090279;28;20419;-79
2022/11/01 01:27:57;;;;;;;7.90;6.50;;;22.60;76.00;;;;;;5090224;28;20431;-79
2022/11/01 01:30:25;;;;;;;8.30;6.37;;;22.60;76.30;;;;;;5096026;28;20535;-79
2022/11/01 01:32:54;;;;;;;6.53;5.90;;;22.60;76.10;;;;;;5102514;28;20468;-80
2022/11/01 01:35:22;;;;;;;7.20;6.50;;;22.60;76.00;;;;;;5115144;28;20453;-79
2022/11/01 01:37:50;;;;;;;8.37;6.37;;;22.60;75.90;;;;;;5092113;28;20824;-78
2022/11/01 01:40:19;;;;;;;7.17;6.47;;;22.60;76.00;;;;;;5092504;28;20440;-78
2022/11/01 01:42:47;;;;;;;8.43;6.30;;;22.60;76.60;;;;;;5093022;28;20564;-78
2022/11/01 01:45:31;;;;;;;9.73;6.57;;;22.60;76.10;;;;;;5092988;28;20433;-78
2022/11/01 01:48:09;;;;;;;7.30;6.30;;;22.60;76.00;;;;;;5096708;28;20436;-77
2022/11/01 01:50:40;;;;;;;10.17;6.37;;;22.60;75.90;;;;;;5097029;28;21076;-78
2022/11/01 01:53:12;;;;;;;8.07;6.33;;;22.50;76.10;;;;;;5110907;28;20479;-78
2022/11/01 01:55:42;;;;;;;9.57;6.73;;;22.60;76.20;;;;;;5113315;28;20475;-78
2022/11/01 01:58:11;;;;;;;9.77;6.63;;;22.50;75.80;;;;;;5115868;28;20894;-78
2022/11/01 02:00:38;;;;;;;9.47;6.53;;;22.60;75.90;;;;;;5112033;28;20449;-80
2022/11/01 02:03:08;;;;;;;6.63;5.73;;;22.60;75.80;;;;;;5105834;28;21026;-79
2022/11/01 02:05:39;;;;;;;8.03;6.70;;;22.60;75.90;;;;;;5095992;28;20448;-79
2022/11/01 02:08:07;;;;;;;8.00;6.40;;;22.60;76.00;;;;;;5098163;28;20453;-79
2022/11/01 02:10:34;;;;;;;8.63;6.50;;;22.60;75.90;;;;;;5107671;28;20488;-80
2022/11/01 02:13:03;;;;;;;7.50;6.70;;;22.50;76.40;;;;;;5113255;28;20472;-78
2022/11/01 02:15:39;;;;;;;7.90;6.63;;;22.50;76.00;;;;;;5101964;28;20450;-79
2022/11/01 02:18:15;;;;;;;6.87;6.10;;;22.50;76.00;;;;;;5098076;28;20411;-78
2022/11/01 02:21:00;;;;;;;9.03;7.07;;;22.60;75.90;;;;;;5094509;28;20439;-78
2022/11/01 02:23:57;;;;;;;6.97;6.30;;;22.50;75.90;;;;;;5077151;28;20447;-79
2022/11/01 02:26:54;;;;;;;8.17;6.70;;;22.50;75.60;;;;;;5080481;28;20420;-79
2022/11/01 02:29:31;;;;;;;7.73;6.73;;;22.50;76.80;;;;;;5085656;28;20428;-79
2022/11/01 02:32:06;;;;;;;10.30;6.33;;;22.50;75.90;;;;;;5103385;28;20411;-79
2022/11/01 02:34:36;;;;;;;9.63;6.80;;;22.50;76.20;;;;;;5105929;28;20422;-79
2022/11/01 02:37:09;;;;;;;9.67;6.83;;;22.50;76.20;;;;;;5104922;28;20445;-78
2022/11/01 02:39:39;;;;;;;7.37;6.53;;;22.50;75.90;;;;;;5103437;28;20428;-79
2022/11/01 02:42:09;;;;;;;9.93;7.00;;;22.50;75.80;;;;;;5103176;28;20455;-79
2022/11/01 02:44:39;;;;;;;10.83;6.17;;;22.50;76.00;;;;;;5073715;28;20468;-79
2022/11/01 02:47:10;;;;;;;7.00;6.10;;;22.50;75.80;;;;;;5085804;28;20444;-79
2022/11/01 02:49:40;;;;;;;10.37;7.00;;;22.50;75.90;;;;;;5108864;28;20458;-78
2022/11/01 02:52:09;;;;;;;7.60;6.70;;;22.50;75.80;;;;;;5081366;28;20452;-78
2022/11/01 02:54:38;;;;;;;9.20;6.80;;;22.50;75.80;;;;;;5092770;28;20473;-78
2022/11/01 02:57:17;;;;;;;7.27;6.57;;;22.50;75.70;;;;;;5096060;28;20446;-77
2022/11/01 02:59:47;;;;;;;8.57;6.73;;;22.50;75.80;;;;;;5094473;28;20448;-78
2022/11/01 03:02:18;;;;;;;12.00;7.60;;;22.50;75.90;;;;;;5092423;28;20423;-78
2022/11/01 03:04:46;;;;;;;8.70;6.80;;;22.50;75.90;;;;;;5093576;28;20437;-78
2022/11/01 03:07:14;;;;;;;7.90;7.10;;;22.50;75.70;;;;;;5092179;28;20522;-78
2022/11/01 03:09:42;;;;;;;9.90;7.00;;;22.50;75.80;;;;;;5099808;28;20448;-78
2022/11/01 03:12:14;;;;;;;8.13;6.67;;;22.50;75.50;;;;;;5085976;28;20458;-79
2022/11/01 03:14:47;;;;;;;9.37;7.30;;;22.50;75.70;;;;;;5072827;28;20476;-78
2022/11/01 03:17:19;;;;;;;7.33;5.90;;;22.50;75.50;;;;;;5088482;28;20468;-78
2022/11/01 03:19:49;;;;;;;11.43;7.00;;;22.50;75.70;;;;;;5113582;28;20439;-77
2022/11/01 03:22:18;;;;;;;7.40;6.60;;;22.50;75.80;;;;;;5111926;28;20427;-77
2022/11/01 03:24:47;;;;;;;12.90;7.60;;;22.50;75.80;;;;;;5108279;28;20453;-78
2022/11/01 03:27:17;;;;;;;7.17;6.30;;;22.50;75.50;;;;;;5098466;28;20444;-78
2022/11/01 03:29:48;;;;;;;9.90;6.83;;;22.50;75.30;;;;;;5101650;28;20473;-77
2022/11/01 03:32:17;;;;;;;9.57;7.20;;;22.50;75.20;;;;;;5092365;28;20462;-78
2022/11/01 03:34:45;;;;;;;10.47;7.13;;;22.50;75.30;;;;;;5100493;28;20459;-78
2022/11/01 03:37:13;;;;;;;11.03;7.70;;;22.50;75.30;;;;;;5102935;28;20450;-78
2022/11/01 03:39:42;;;;;;;8.50;7.17;;;22.50;75.10;;;;;;5092788;28;20460;-78
2022/11/01 03:42:13;;;;;;;8.37;7.00;;;22.50;75.20;;;;;;5105692;28;20456;-79
2022/11/01 03:44:42;;;;;;;10.73;7.07;;;22.50;75.10;;;;;;5107930;28;21026;-79
2022/11/01 03:47:10;;;;;;;9.50;7.20;;;22.50;74.80;;;;;;5088992;28;20420;-79
2022/11/01 03:49:39;;;;;;;9.33;7.07;;;22.50;74.90;;;;;;5092361;28;20453;-79
2022/11/01 03:52:08;;;;;;;10.80;7.87;;;22.50;75.00;;;;;;5079592;28;20455;-79
2022/11/01 03:54:35;;;;;;;9.90;7.70;;;22.50;74.70;;;;;;5109503;28;20893;-79
2022/11/01 03:57:04;;;;;;;9.87;7.03;;;22.50;74.70;;;;;;5092749;28;20526;-79
2022/11/01 03:59:32;;;;;;;9.73;7.50;;;22.50;74.70;;;;;;5111137;28;20467;-79
2022/11/01 04:02:00;;;;;;;9.60;6.60;;;22.40;74.70;;;;;;5103139;28;20431;-79
2022/11/01 04:04:29;;;;;;;9.30;7.60;;;22.50;74.70;;;;;;5076324;28;20478;-78
2022/11/01 04:06:58;;;;;;;11.43;8.00;;;22.50;74.60;;;;;;5103137;28;20418;-78
2022/11/01 04:09:26;;;;;;;8.67;7.60;;;22.50;74.60;;;;;;5088500;28;20510;-79
2022/11/01 04:11:54;;;;;;;8.93;7.20;;;22.50;74.40;;;;;;5075956;28;20464;-79
2022/11/01 04:22:41;;;;;;;16.97;8.63;;;22.50;74.30;;;;;;5095187;28;20443;-78
2022/11/01 04:25:09;;;;;;;9.90;7.40;;;22.40;74.10;;;;;;5093605;28;20984;-77
2022/11/01 04:27:38;;;;;;;10.70;7.53;;;22.40;74.30;;;;;;5075734;28;20438;-79
2022/11/01 04:30:07;;;;;;;13.27;7.80;;;22.40;74.10;;;;;;5094704;28;20444;-78
2022/11/01 04:32:35;;;;;;;13.87;7.73;;;22.50;74.10;;;;;;5103469;28;20461;-78
2022/11/01 04:35:03;;;;;;;14.13;7.10;;;22.40;74.10;;;;;;5093135;28;20452;-79
2022/11/01 04:37:31;;;;;;;10.07;7.27;;;22.40;74.00;;;;;;5094460;28;20534;-79
2022/11/01 04:40:00;;;;;;;9.60;7.50;;;22.40;73.80;;;;;;5085960;28;20452;-79
2022/11/01 04:42:28;;;;;;;11.43;7.43;;;22.50;73.80;;;;;;5116108;28;20414;-80
2022/11/01 04:44:56;;;;;;;11.40;7.57;;;22.40;73.90;;;;;;5098506;28;21000;-79
2022/11/01 04:47:24;;;;;;;14.40;7.60;;;22.50;73.80;;;;;;5095026;28;20453;-78
2022/11/01 04:49:52;;;;;;;9.67;6.83;;;22.50;73.80;;;;;;5110617;28;20467;-79
2022/11/01 04:52:20;;;;;;;7.63;6.60;;;22.50;73.60;;;;;;5096419;28;20435;-80
2022/11/01 04:54:48;;;;;;;8.50;6.67;;;22.50;73.50;;;;;;5105095;28;20447;-80
2022/11/01 04:57:23;;;;;;;9.67;7.00;;;22.50;73.60;;;;;;5115588;28;20491;-80
2022/11/01 04:59:52;;;;;;;9.87;7.00;;;22.50;73.40;;;;;;5112466;28;20448;-80
2022/11/01 05:02:20;;;;;;;7.93;6.70;;;22.50;73.60;;;;;;5112839;28;20534;-78
2022/11/01 05:04:48;;;;;;;10.20;7.40;;;22.50;73.50;;;;;;5096263;28;20970;-79
2022/11/01 05:07:16;;;;;;;8.17;6.63;;;22.50;73.40;;;;;;5099910;28;20434;-80
2022/11/01 05:09:45;;;;;;;9.70;7.37;;;22.50;73.40;;;;;;5097696;28;20454;-80
2022/11/01 05:12:13;;;;;;;10.07;7.03;;;22.50;73.40;;;;;;5096554;28;20396;-79
2022/11/01 05:14:42;;;;;;;9.13;7.10;;;22.50;73.40;;;;;;5094685;28;20472;-79
2022/11/01 05:17:10;;;;;;;8.50;6.60;;;22.50;73.40;;;;;;5096648;28;20471;-79
2022/11/01 05:19:38;;;;;;;8.60;6.90;;;22.50;73.10;;;;;;5108536;28;20464;-78
2022/11/01 05:22:06;;;;;;;10.43;7.10;;;22.40;73.10;;;;;;5094077;28;20441;-78
2022/11/01 05:24:34;;;;;;;11.40;7.37;;;22.50;73.10;;;;;;5113908;28;20467;-78
2022/11/01 05:27:02;;;;;;;11.43;7.43;;;22.50;73.20;;;;;;5108213;28;20425;-79
2022/11/01 05:29:30;;;;;;;9.37;6.90;;;22.50;73.10;;;;;;5092962;28;20528;-79
2022/11/01 05:32:01;;;;;;;10.73;6.90;;;22.50;72.90;;;;;;5077742;28;20456;-79
2022/11/01 05:34:30;;;;;;;9.80;7.27;;;22.50;73.10;;;;;;5096495;28;20443;-79
2022/11/01 05:36:57;;;;;;;10.67;6.80;;;22.50;73.00;;;;;;5098947;28;20535;-78
2022/11/01 05:39:25;;;;;;;10.50;6.57;;;22.50;72.80;;;;;;5093217;28;20430;-79
2022/11/01 05:41:53;;;;;;;8.50;7.20;;;22.50;72.70;;;;;;5093331;28;21068;-79
2022/11/01 05:44:28;;;;;;;9.50;6.93;;;22.40;72.70;;;;;;5108638;28;20551;-79
2022/11/01 05:46:56;;;;;;;10.73;7.03;;;22.50;72.70;;;;;;5095385;28;20536;-77
2022/11/01 05:49:26;;;;;;;12.30;7.00;;;22.50;72.60;;;;;;5087551;28;21020;-79
2022/11/01 05:51:54;;;;;;;11.47;6.70;;;22.50;72.50;;;;;;5094144;28;20444;-78
2022/11/01 05:54:22;;;;;;;12.03;7.50;;;22.50;72.40;;;;;;5109493;28;20472;-78
2022/11/01 05:56:50;;;;;;;10.33;6.90;;;22.50;72.40;;;;;;5099238;28;20448;-77
2022/11/01 05:59:17;;;;;;;9.20;6.77;;;22.40;72.30;;;;;;5106158;28;20464;-77
2022/11/01 06:01:46;;;;;;;9.93;6.90;;;22.50;72.10;;;;;;5114204;28;20426;-79
2022/11/01 06:04:14;;;;;;;10.33;6.50;;;22.50;72.20;;;;;;5092968;28;20452;-79
2022/11/01 06:06:43;;;;;;;9.10;6.23;;;22.50;72.50;;;;;;5092577;28;20499;-79
2022/11/01 06:09:11;;;;;;;10.53;6.00;;;22.50;71.80;;;;;;5106275;28;20452;-79
2022/11/01 06:11:39;;;;;;;10.07;6.80;;;22.50;71.90;;;;;;5088725;28;20430;-78
2022/11/01 06:14:10;;;;;;;7.80;6.27;;;22.50;72.50;;;;;;5109938;28;20475;-79
2022/11/01 06:16:38;;;;;;;9.63;6.30;;;22.50;71.80;;;;;;5114149;28;20443;-79
2022/11/01 06:19:06;;;;;;;7.03;6.03;;;22.50;71.60;;;;;;5099518;28;20465;-79
2022/11/01 06:21:34;;;;;;;8.30;6.33;;;22.50;71.50;;;;;;5093326;28;20423;-79
2022/11/01 06:24:04;;;;;;;10.53;6.47;;;22.40;71.40;;;;;;5104222;28;20475;-79
2022/11/01 06:26:33;;;;;;;10.20;6.20;;;22.50;71.30;;;;;;5105623;28;20438;-78
2022/11/01 06:29:01;;;;;;;9.40;6.90;;;22.40;71.40;;;;;;5098561;28;20423;-79
2022/11/01 06:31:30;;;;;;;10.97;6.40;;;22.50;71.40;;;;;;5108072;28;20448;-80
2022/11/01 06:33:58;;;;;;;8.63;5.80;;;22.50;71.20;;;;;;5101325;28;20443;-81
2022/11/01 06:36:26;;;;;;;9.40;6.43;;;22.50;71.20;;;;;;5077697;28;20484;-80
2022/11/01 06:38:54;;;;;;;8.17;6.40;;;22.40;71.10;;;;;;5092355;28;20443;-78
2022/11/01 06:41:24;;;;;;;10.93;6.37;;;22.50;71.10;;;;;;5111818;28;20423;-80
2022/11/01 06:43:51;;;;;;;15.07;6.73;;;22.50;71.10;;;;;;5099952;28;20491;-79
2022/11/01 06:46:20;;;;;;;12.83;6.47;;;22.50;70.70;;;;;;5099839;28;20428;-78
2022/11/01 06:48:48;;;;;;;10.80;6.47;;;22.50;70.70;;;;;;5094273;28;20520;-77
2022/11/01 06:51:16;;;;;;;9.07;5.97;;;22.50;70.70;;;;;;5096452;28;20433;-79
2022/11/01 06:53:44;;;;;;;7.23;5.73;;;22.60;70.60;;;;;;5101879;28;20478;-79
2022/11/01 06:56:12;;;;;;;7.77;5.90;;;22.60;70.60;;;;;;5113741;28;20443;-79
2022/11/01 06:58:41;;;;;;;6.40;4.83;;;22.60;70.70;;;;;;5102287;28;20469;-79
2022/11/01 07:01:09;;;;;;;10.00;5.83;;;22.60;70.40;;;;;;5095345;28;20455;-79
2022/11/01 07:03:38;;;;;;;8.37;5.50;;;22.60;70.40;;;;;;5101140;28;21073;-79
2022/11/01 07:06:06;;;;;;;8.97;5.37;;;22.60;70.40;;;;;;5110594;28;20447;-79
2022/11/01 07:08:34;;;;;;;7.17;5.47;;;22.60;70.30;;;;;;5113666;28;20421;-79
2022/11/01 07:11:02;;;;;;;6.70;5.27;;;22.60;70.40;;;;;;5102253;28;20469;-80
2022/11/01 07:13:32;;;;;;;8.80;5.87;;;22.60;70.20;;;;;;5104797;28;20478;-79
2022/11/01 07:16:03;;;;;;;8.10;5.80;;;22.60;70.10;;;;;;5094917;28;20445;-80
2022/11/01 07:18:31;;;;;;;15.87;5.37;;;22.70;70.30;;;;;;5079383;28;20477;-80
2022/11/01 07:21:01;;;;;;;9.57;5.67;;;22.70;70.10;;;;;;5088649;28;20423;-80
2022/11/01 07:23:29;;;;;;;7.57;5.40;;;22.70;70.70;;;;;;5113532;28;20452;-80
2022/11/01 07:25:57;;;;;;;8.07;5.50;;;22.70;69.90;;;;;;5112165;28;20422;-80
2022/11/01 07:28:26;;;;;;;8.90;5.33;;;22.70;69.80;;;;;;5114404;28;20438;-80
2022/11/01 07:30:54;;;;;;;6.03;5.43;;;22.70;69.80;;;;;;5112780;28;20541;-79
2022/11/01 07:33:23;;;;;;;9.40;4.90;;;22.70;69.90;;;;;;5103658;28;20465;-81
2022/11/01 07:35:51;;;;;;;10.33;5.23;;;22.70;69.80;;;;;;5090163;28;20449;-80
2022/11/01 07:38:20;;;;;;;8.23;4.97;;;22.70;69.80;;;;;;5093990;28;20452;-79
2022/11/01 07:40:49;;;;;;;10.63;5.63;;;22.80;69.70;;;;;;5104180;28;20452;-80
2022/11/01 07:43:17;;;;;;;12.90;5.00;;;22.80;69.90;;;;;;5112936;28;20973;-79
2022/11/01 07:45:45;;;;;;;8.57;5.50;;;22.80;69.70;;;;;;5085723;28;20445;-80
2022/11/01 07:48:14;;;;;;;6.90;5.57;;;22.90;69.80;;;;;;5108759;28;20449;-79
2022/11/01 07:50:44;;;;;;;5.70;5.10;;;22.90;69.70;;;;;;5105995;28;20914;-79
2022/11/01 07:53:12;;;;;;;6.47;5.17;;;22.90;69.50;;;;;;5106002;28;20452;-80
2022/11/01 07:55:40;;;;;;;9.47;4.90;;;22.90;69.90;;;;;;5096690;28;20419;-79
2022/11/01 07:58:08;;;;;;;18.67;5.50;;;22.90;69.60;;;;;;5078683;28;20430;-80
2022/11/01 08:00:37;;;;;;;14.20;5.60;;;22.90;69.50;;;;;;5099201;28;20472;-80
2022/11/01 08:03:06;;;;;;;6.50;5.00;;;22.90;69.50;;;;;;5119871;28;20441;-80
2022/11/01 08:05:34;;;;;;;7.90;5.30;;;22.90;69.60;;;;;;5111968;28;20446;-78
2022/11/01 08:08:04;;;;;;;7.90;5.10;;;23.00;69.30;;;;;;5099990;28;20422;-80
2022/11/01 08:10:33;;;;;;;5.47;4.63;;;22.90;69.40;;;;;;5099087;28;20502;-79
2022/11/01 08:13:02;;;;;;;9.37;5.50;;;23.00;69.40;;;;;;5099022;28;20439;-80
2022/11/01 08:15:31;;;;;;;6.03;4.57;;;23.00;69.20;;;;;;5099989;28;20411;-80
2022/11/01 08:17:59;;;;;;;8.40;4.60;;;22.90;68.50;;;;;;5095183;28;20451;-80
2022/11/01 08:20:28;;;;;;;5.60;4.60;;;22.90;69.10;;;;;;5098435;28;20476;-79
2022/11/01 08:22:57;;;;;;;6.40;4.60;;;22.90;69.00;;;;;;5098473;28;20486;-80
2022/11/01 08:25:27;;;;;;;5.20;4.70;;;23.00;68.90;;;;;;5097493;28;20464;-78
2022/11/01 08:27:55;;;;;;;5.20;4.70;;;23.00;68.70;;;;;;5095357;28;20461;-78
2022/11/01 08:30:24;;;;;;;5.90;4.43;;;23.00;68.60;;;;;;5094990;28;20433;-78
2022/11/01 08:32:58;;;;;;;5.30;4.17;;;23.00;68.60;;;;;;5097283;28;20456;-80
2022/11/01 08:35:26;;;;;;;6.80;4.10;;;23.00;68.50;;;;;;5097393;28;20416;-79
2022/11/01 08:37:54;;;;;;;5.90;4.13;;;22.90;68.30;;;;;;5102555;28;20495;-79
2022/11/01 08:40:22;;;;;;;4.47;4.10;;;23.00;68.40;;;;;;5117965;28;20506;-79
2022/11/01 08:42:51;;;;;;;5.00;4.13;;;23.00;68.40;;;;;;5108334;28;20500;-80
2022/11/01 08:45:19;;;;;;;6.60;4.40;;;23.00;68.20;;;;;;5100389;28;20445;-79
2022/11/01 08:47:48;;;;;;;4.60;3.97;;;23.10;68.40;;;;;;5098122;28;20440;-79
2022/11/01 08:50:17;;;;;;;4.60;3.90;;;23.20;68.60;;;;;;5112551;28;20955;-80
2022/11/01 08:52:45;;;;;;;8.73;4.53;;;23.40;68.60;;;;;;5100887;28;20450;-79
2022/11/01 08:55:12;;;;;;;8.43;4.57;;;23.70;68.60;;;;;;5100760;28;20433;-83
2022/11/01 08:57:41;;;;;;;4.70;4.27;;;23.90;68.70;;;;;;5098562;28;20418;-82
2022/11/01 09:00:12;;;;;;;4.20;3.80;;;24.30;68.40;;;;;;5098541;28;20443;-81
2022/11/01 09:02:40;;;;;;;4.20;3.83;;;24.60;68.10;;;;;;5101525;28;20442;-82
2022/11/01 09:05:08;;;;;;;6.23;3.63;;;24.80;67.60;;;;;;5112262;28;20418;-82
2022/11/01 09:07:37;;;;;;;9.60;4.20;;;25.10;67.30;;;;;;5100207;28;20430;-82
2022/11/01 09:10:06;;;;;;;4.20;3.80;;;25.30;67.10;;;;;;5100387;28;20429;-82
2022/11/01 09:12:34;;;;;;;4.67;4.20;;;25.50;66.50;;;;;;5100605;28;20422;-82
2022/11/01 09:15:02;;;;;;;5.13;3.63;;;25.70;66.00;;;;;;5100435;28;20540;-82
2022/11/01 09:17:32;;;;;;;4.60;3.70;;;25.90;65.70;;;;;;5100102;28;20444;-82
2022/11/01 09:20:00;;;;;;;3.90;3.50;;;26.20;65.20;;;;;;5099016;28;20439;-82
2022/11/01 09:22:27;;;;;;;4.13;3.83;;;26.40;64.70;;;;;;5100133;28;20434;-82
2022/11/01 09:24:57;;;;;;;3.70;3.40;;;26.60;64.20;;;;;;5100772;28;20443;-82
2022/11/01 09:27:25;;;;;;;3.30;3.00;;;26.80;63.70;;;;;;5100681;28;20475;-82
2022/11/01 09:29:53;;;;;;;8.70;4.20;;;27.00;63.30;;;;;;5100885;28;20407;-82
2022/11/01 09:32:21;;;;;;;4.70;3.50;;;27.20;62.90;;;;;;5099917;28;20505;-82
2022/11/01 09:34:51;;;;;;;3.40;3.10;;;27.40;62.50;;;;;;5100666;28;20476;-82
2022/11/01 09:37:18;;;;;;;4.67;3.30;;;27.60;62.10;;;;;;5100632;28;20519;-82
2022/11/01 09:39:46;;;;;;;3.83;3.50;;;27.80;61.70;;;;;;5101469;28;20478;-82
2022/11/01 09:42:18;;;;;;;4.30;3.23;;;28.00;61.40;;;;;;5101245;28;20419;-82
2022/11/01 09:44:47;;;;;;;3.20;2.90;;;28.20;61.10;;;;;;5100463;28;20422;-81
2022/11/01 09:47:15;;;;;;;4.30;3.37;;;28.40;60.90;;;;;;5100460;28;20445;-82
2022/11/01 09:49:46;;;;;;;5.47;3.30;;;28.60;60.40;;;;;;5116863;28;20447;-82
2022/11/01 09:52:18;;;;;;;3.70;3.40;;;28.80;59.90;;;;;;5120509;28;20444;-82
2022/11/01 09:54:46;;;;;;;4.07;3.67;;;28.90;59.60;;;;;;5121229;28;20462;-82
2022/11/01 09:57:18;;;;;;;3.80;3.50;;;29.10;59.30;;;;;;5119150;28;20440;-82
2022/11/01 09:59:48;;;;;;;3.50;3.17;;;29.10;58.80;;;;;;5118959;27;20460;-82
2022/11/01 10:02:29;;;;;;;3.53;3.23;;;29.20;58.70;;;;;;5112962;28;20427;-82
2022/11/01 10:05:06;;;;;;;4.00;3.20;;;29.30;58.40;;;;;;5095582;28;20457;-81
2022/11/01 10:07:39;;;;;;;3.20;2.80;;;29.40;58.20;;;;;;5098869;28;20856;-81
2022/11/01 10:10:16;;;;;;;5.70;3.43;;;29.60;57.80;;;;;;5098329;28;20793;-81
2022/11/01 10:12:50;;;;;;;5.60;3.33;;;29.60;57.40;;;;;;5097839;28;20464;-80
2022/11/01 10:15:27;;;;;;;5.50;3.40;;;29.70;57.40;;;;;;5098260;28;20449;-81
2022/11/01 10:17:55;;;;;;;3.30;3.10;;;29.90;57.00;;;;;;5096500;28;20787;-81
2022/11/01 10:20:24;;;;;;;6.60;3.23;;;30.20;56.50;;;;;;5095867;28;20460;-81
2022/11/01 10:22:53;;;;;;;9.00;3.50;;;30.30;56.10;;;;;;5097557;28;20425;-81
2022/11/01 10:25:22;;;;;;;3.73;3.00;;;30.60;55.80;;;;;;5098718;28;20486;-81
2022/11/01 10:27:53;;;;;;;5.60;3.30;;;30.70;55.30;;;;;;5097794;28;20436;-80
2022/11/01 10:30:21;;;;;;;3.40;3.00;;;30.90;55.00;;;;;;5098203;28;20444;-82
2022/11/01 10:32:51;;;;;;;4.23;3.33;;;31.10;54.70;;;;;;5097920;28;20482;-82
2022/11/01 10:35:21;;;;;;;2.90;2.70;;;31.30;54.10;;;;;;5097794;28;20463;-81
2022/11/01 10:37:52;;;;;;;4.50;3.27;;;31.50;53.80;;;;;;5090211;28;20496;-82
2022/11/01 10:40:43;;;;;;;6.57;3.10;;;31.80;53.40;;;;;;5076909;28;20527;-81
2022/11/01 10:43:13;;;;;;;3.43;3.13;;;31.90;52.80;;;;;;5078470;28;20462;-82
2022/11/01 10:45:41;;;;;;;6.20;3.57;;;32.10;52.60;;;;;;5076747;28;20449;-80
2022/11/01 10:48:20;;;;;;;3.70;3.40;;;32.30;52.30;;;;;;5074543;28;20438;-80
2022/11/01 10:50:49;;;;;;;3.70;3.40;;;32.50;52.00;;;;;;5074428;28;20491;-80
2022/11/01 10:53:17;;;;;;;3.57;3.27;;;32.70;52.20;;;;;;5077634;28;20995;-81
2022/11/01 10:55:48;;;;;;;5.57;3.10;;;33.00;51.50;;;;;;5094876;28;20445;-79
2022/11/01 10:58:19;;;;;;;7.70;3.57;;;33.10;50.70;;;;;;5097194;28;20471;-80
2022/11/01 11:00:46;;;;;;;3.23;2.90;;;33.30;50.40;;;;;;5094745;28;20472;-80
2022/11/01 11:03:18;;;;;;;3.50;3.20;;;33.50;49.90;;;;;;5106446;28;20472;-80
2022/11/01 11:05:46;;;;;;;3.17;2.87;;;33.80;49.60;;;;;;5102049;28;20444;-80
2022/11/01 11:08:15;;;;;;;4.73;3.60;;;34.00;49.30;;;;;;5101077;28;20449;-80
2022/11/01 11:10:43;;;;;;;4.37;3.37;;;34.20;48.80;;;;;;5098924;28;20951;-81
2022/11/01 11:13:13;;;;;;;3.67;3.30;;;34.30;48.30;;;;;;5093597;28;20468;-81
2022/11/01 11:15:43;;;;;;;3.67;3.40;;;34.50;47.60;;;;;;5080124;28;20452;-81
2022/11/01 11:18:17;;;;;;;3.67;3.20;;;34.80;47.00;;;;;;5083374;28;20864;-81
2022/11/01 11:20:45;;;;;;;3.63;3.33;;;34.80;45.60;;;;;;5083215;28;20472;-81
2022/11/01 11:23:13;;;;;;;3.20;3.00;;;34.50;45.20;;;;;;5084091;28;20468;-81
2022/11/01 11:25:43;;;;;;;3.33;3.10;;;34.20;45.60;;;;;;5083802;28;20461;-81
2022/11/01 11:28:20;;;;;;;4.23;3.70;;;33.90;46.10;;;;;;5079871;28;20445;-81
2022/11/01 11:30:48;;;;;;;3.67;3.10;;;33.60;46.30;;;;;;5095159;28;20906;-81
2022/11/01 11:33:16;;;;;;;4.13;3.57;;;33.20;46.60;;;;;;5101343;28;20457;-81
2022/11/01 11:35:57;;;;;;;4.93;3.67;;;32.90;46.90;;;;;;5115073;28;20480;-81
2022/11/01 11:38:42;;;;;;;3.47;3.17;;;32.60;47.10;;;;;;5120757;28;20443;-81
2022/11/01 11:41:11;;;;;;;3.50;3.10;;;32.70;47.90;;;;;;5106621;28;20522;-81
2022/11/01 11:43:41;;;;;;;5.40;3.70;;;32.70;47.10;;;;;;5100673;28;20465;-81
2022/11/01 11:46:13;;;;;;;4.43;3.60;;;32.60;46.80;;;;;;5101008;28;20443;-81
2022/11/01 11:48:49;;;;;;;6.40;3.80;;;32.30;47.00;;;;;;5100941;28;20497;-81
2022/11/01 11:51:17;;;;;;;4.77;3.40;;;32.50;48.10;;;;;;5101307;28;20451;-82
2022/11/01 11:53:45;;;;;;;5.07;3.80;;;33.00;47.20;;;;;;5100927;28;20522;-82
2022/11/01 11:56:13;;;;;;;4.20;3.60;;;33.20;46.70;;;;;;5101823;28;20440;-81
2022/11/01 11:58:43;;;;;;;4.17;3.73;;;33.60;46.40;;;;;;5101159;28;20449;-81
2022/11/01 12:01:13;;;;;;;4.97;3.60;;;34.00;45.60;;;;;;5095072;28;20472;-81
2022/11/01 12:03:45;;;;;;;3.57;3.37;;;34.00;44.60;;;;;;5078499;28;20999;-81
2022/11/01 12:06:16;;;;;;;5.27;3.80;;;34.10;45.00;;;;;;5079036;28;20434;-81
2022/11/01 12:08:45;;;;;;;4.20;3.67;;;34.20;44.70;;;;;;5078583;28;20479;-81
2022/11/01 12:11:14;;;;;;;3.60;3.30;;;34.10;44.10;;;;;;5081515;28;20476;-81
2022/11/01 12:13:44;;;;;;;5.27;3.60;;;33.80;44.00;;;;;;5083805;28;20465;-79
2022/11/01 12:16:19;;;;;;;5.20;3.60;;;33.60;44.30;;;;;;5079330;28;20449;-80
2022/11/01 12:18:48;;;;;;;5.27;4.17;;;33.20;44.30;;;;;;5086763;28;20449;-80
2022/11/01 12:21:18;;;;;;;4.47;4.07;;;32.80;44.90;;;;;;5091072;28;20491;-80
2022/11/01 12:23:46;;;;;;;4.20;3.80;;;32.40;45.40;;;;;;5102832;28;20452;-80
2022/11/01 12:26:15;;;;;;;4.03;3.63;;;32.00;46.00;;;;;;5101343;28;20437;-80
2022/11/01 12:28:45;;;;;;;3.77;3.47;;;31.60;46.50;;;;;;5099873;28;20441;-80
2022/11/01 12:31:15;;;;;;;4.73;4.23;;;31.40;46.90;;;;;;5100575;28;20445;-80
2022/11/01 12:33:47;;;;;;;4.33;3.93;;;31.10;47.10;;;;;;5100635;28;20525;-79
2022/11/01 12:36:15;;;;;;;9.40;4.57;;;31.00;47.60;;;;;;5096684;28;20426;-79
2022/11/01 12:38:43;;;;;;;4.80;4.30;;;30.90;47.90;;;;;;5091068;28;20428;-81
2022/11/01 12:41:29;;;;;;;4.20;3.90;;;31.20;48.30;;;;;;5098814;28;21052;-81
2022/11/01 12:44:30;;;;;;;8.53;4.73;;;31.60;47.40;;;;;;5096743;28;20478;-81
2022/11/01 12:47:02;;;;;;;4.17;3.50;;;32.10;46.80;;;;;;5098773;28;20444;-81
2022/11/01 12:49:32;;;;;;;4.00;3.33;;;32.70;46.10;;;;;;5097541;28;20433;-81
2022/11/01 12:52:03;;;;;;;4.83;4.43;;;33.10;45.00;;;;;;5099408;28;20436;-79
2022/11/01 12:54:33;;;;;;;7.20;4.57;;;33.50;44.60;;;;;;5090580;28;20525;-80
2022/11/01 12:57:01;;;;;;;4.37;4.03;;;33.80;44.10;;;;;;5090939;28;20454;-81
2022/11/01 12:59:33;;;;;;;4.67;4.07;;;34.00;43.40;;;;;;5096604;28;20437;-80
2022/11/01 13:02:09;;;;;;;4.43;3.87;;;34.30;43.00;;;;;;5096007;28;20468;-81
2022/11/01 13:04:40;;;;;;;6.93;4.10;;;34.50;42.60;;;;;;5096549;28;20464;-80
2022/11/01 13:07:20;;;;;;;4.30;3.90;;;34.40;42.30;;;;;;5097643;28;20498;-80